Terminal Aerodrome Forecast
Issued by NWS Upton, NY

Current Version | Previous Version | Text Only | Print | Product List | Glossary On
Versions: 1 2 3 4 5 6 7 8 9 10 11 12 13 14 15 16 17 18 19 20 21 22 23 24 25 26 27 28 29 30
000
FTUS41 KOKX 222200 CCA
TAFLGA
TAF COR
KLGA 222205Z 2222/2318 01013G20KT 6SM -SHRA BR BKN015 OVC025
     FM230000 36020G29KT 4SM -RA BR BKN015
     FM230600 35018G28KT 4SM -RA BR BKN015
     FM231300 33020G30KT 6SM BR VCSH BKN015=

USA.gov is the U.S. government's official web portal to all federal, state and local government web resources and services.